Nearby METAR Reports

 

KALB - Albany, New York, USA
Distance from station: E 47mi, 75km
Updated: Fri, 12-Apr-2024 9:51pm EDT
Mostly cloudy
Mostly cloudy
 Wind from SSE
Wind: SSE 13 mph, 20 km/h
Temperature: 55°F, 13°C
Dew Point: 45°F, 7°C
Humidity: 67%
Barometer: 29.37 inHg, 994.6 hPa
Clouds: Mostly cloudy
Visibility: 10 miles, 16 km
Cloud details: Few Clouds 6000 ft
Partly cloudy 7500 ft
Mostly cloudy 12000 ft
2024/04/13 01:51 KALB 130151Z 16011KT 10SM FEW060 SCT075 BKN120 13/07 A2937 RMK AO2 SLP946 T01280067
KSLK - Saranac Lake, New York, USA
Distance from station: N 110mi, 177km
Updated: Wed, 10-Apr-2024 8:51am EDT
NOT Current
Mostly cloudy
Mostly cloudy
 Wind from W
Wind: W 6 mph, 9 km/h
Temperature: 52°F, 11°C
Dew Point: 46°F, 8°C
Humidity: 82%
Barometer: 29.93 inHg, 1013.5 hPa
Clouds: Mostly cloudy
Visibility: 10 miles, 16 km
Cloud details: Mostly cloudy 6000 ft
2024/04/10 12:51 KSLK 101251Z AUTO 26005KT 10SM BKN060 11/08 A2993 RMK AO2 SLP140 T01060083
 
KSYR - Syracuse, New York, USA
Distance from station: W 73mi, 117km
Updated: Fri, 12-Apr-2024 9:54pm EDT
Light rain, Overcast
Light rain, Overcast
 Wind from SW
Wind: SW 9 mph, 15 km/h
Temperature: 52°F, 11°C
Dew Point: 43°F, 6°C
Humidity: 72%
Barometer: 29.30 inHg, 992.2 hPa
Summary: Light rain
Clouds: Overcast
Visibility: 10 miles, 16 km
Cloud details: Partly cloudy 3700 ft
Mostly cloudy 6000 ft
Overcast 8500 ft
2024/04/13 01:54 KSYR 130154Z 23008KT 10SM -RA SCT037 BKN060 OVC085 11/06 A2930 RMK AO2 RAB22 SLP917 PCPN VRY LGT P0000 T01110061 $
KBGM - Binghamton, New York, USA
Distance from station: SW 78mi, 126km
Updated: Fri, 12-Apr-2024 9:53pm EDT
Overcast
Overcast
 Wind from SW
Wind: SW 12 mph, 19 km/h, Gust: 23 mph, 37 km/h
Temperature: 48°F, 9°C
Wind Chill: 43°F, 6°C
Dew Point: 39°F, 4°C
Humidity: 71%
Barometer: 29.35 inHg, 993.9 hPa
Clouds: Overcast
Visibility: 10 miles, 16 km
Cloud details: Few Clouds 2500 ft
Partly cloudy 7000 ft
Overcast 9000 ft
2024/04/13 01:53 KBGM 130153Z AUTO 22010G20KT 10SM FEW025 SCT070 OVC090 09/04 A2935 RMK AO2 RAE0057 SLP937 P0000 T00890044
 
KRME - Rome, New York, USA
Distance from station: WNW 43mi, 69km
Updated: Fri, 12-Apr-2024 9:53pm EDT
Overcast
Overcast
 Wind from SSW
Wind: SSW 9 mph, 15 km/h
Temperature: 52°F, 11°C
Dew Point: 43°F, 6°C
Humidity: 72%
Barometer: 29.32 inHg, 992.9 hPa
Clouds: Overcast
Visibility: 10 miles, 16 km
Cloud details: Few Clouds 3500 ft
Mostly cloudy 5500 ft
Overcast 10000 ft
2024/04/13 01:53 KRME 130153Z AUTO 20008KT 10SM FEW035 BKN055 OVC100 11/06 A2932 RMK AO2 SLP924 T01110056
KJFK - New York, New York, USA
Distance from station: SSE 159mi, 256km
Updated: Fri, 12-Apr-2024 9:51pm EDT
Mostly cloudy
Mostly cloudy
 Wind from SW
Wind: SW 13 mph, 20 km/h
Temperature: 55°F, 13°C
Dew Point: 45°F, 7°C
Humidity: 67%
Barometer: 29.53 inHg, 1000 hPa
Clouds: Mostly cloudy
Visibility: 10 miles, 16 km
Cloud details: Mostly cloudy 8500 ft
Mostly cloudy 13000 ft
2024/04/13 01:51 KJFK 130151Z 22011KT 10SM BKN085 BKN130 13/07 A2953 RMK AO2 SLP999 T01330072
 
KROC - Rochester, New York, USA
Distance from station: W 150mi, 242km
Updated: Fri, 12-Apr-2024 9:54pm EDT
Light rain, Overcast
Light rain, Overcast
 Wind from WSW
Wind: WSW 29 mph, 46 km/h, Gust: 39 mph, 63 km/h
Temperature: 46°F, 8°C
Wind Chill: 37°F, 3°C
Dew Point: 37°F, 3°C
Humidity: 71%
Barometer: 29.30 inHg, 992.2 hPa
Summary: Light rain
Clouds: Overcast
Visibility: 10 miles, 16 km
Cloud details: Overcast 2400 ft
2024/04/13 01:54 KROC 130154Z 25025G34KT 10SM -RA OVC024 08/03 A2930 RMK AO2 PK WND 25039/0056 SLP926 P0000 T00780033 $
KART - Watertown, New York, USA
Distance from station: NNW 103mi, 166km
Updated: Fri, 12-Apr-2024 9:56pm EDT
Light rain, Overcast
Light rain, Overcast
 Wind from SW
Wind: SW 13 mph, 20 km/h
Temperature: 50°F, 10°C
Wind Chill: 45°F, 7°C
Dew Point: 41°F, 5°C
Humidity: 71%
Barometer: 29.24 inHg, 990.2 hPa
Summary: Light rain
Clouds: Overcast
Visibility: 10 miles, 16 km
Cloud details: Mostly cloudy 3600 ft
Overcast 4700 ft
2024/04/13 01:56 KART 130156Z AUTO 23011KT 10SM -RA BKN036 OVC047 10/05 A2924 RMK AO2 RAB23 SLP901 P0000 T01000050
 
KELM - Elmira-Corning, New York, USA
Distance from station: SSW 121mi, 195km
Updated: Fri, 12-Apr-2024 10:18pm EDT
Overcast
Overcast
 Wind from WSW
Wind: WSW 13 mph, 20 km/h, Gust: 23 mph, 37 km/h
Temperature: 50°F, 10°C
Wind Chill: 45°F, 7°C
Dew Point: 43°F, 6°C
Humidity: 76%
Barometer: 29.34 inHg, 993.6 hPa
Clouds: Overcast
Visibility: 10 miles, 16 km
Cloud details: Mostly cloudy 2800 ft
Mostly cloudy 3800 ft
Overcast 12000 ft
2024/04/13 02:18 KELM 130218Z 24011G20KT 10SM BKN028 BKN038 OVC120 10/06 A2934 RMK AO2 RAE18 P0000 T01000056
KJHW - Jamestown, New York, USA
Distance from station: SW 238mi, 383km
Updated: Fri, 12-Apr-2024 9:56pm EDT
Light rain, Overcast
Light rain, Overcast
 Wind from WNW
Wind: WNW 20 mph, 31 km/h, Gust: 32 mph, 52 km/h
Temperature: 37°F, 3°C
Wind Chill: 27°F, -3°C
Dew Point: 37°F, 3°C
Humidity: 100%
Barometer: 29.45 inHg, 997.3 hPa
Summary: Light rain
Clouds: Overcast
Visibility: 7 miles, 11 km
Cloud details: Overcast 1000 ft
2024/04/13 01:56 KJHW 130156Z AUTO 29017G28KT 7SM -RA OVC010 03/03 A2945 RMK AO2 PK WND 31032/0145 CIG 008V014 SLP986 P0002 T00330028
 
KMSS - Massena, New York, USA
Distance from station: N 141mi, 232km
Updated: Fri, 12-Apr-2024 9:53pm EDT
Mostly cloudy
Mostly cloudy
 Wind from SSW
Wind: SSW 15 mph, 24 km/h, Gust: 26 mph, 43 km/h
Temperature: 50°F, 10°C
Wind Chill: 45°F, 7°C
Dew Point: 41°F, 5°C
Humidity: 71%
Barometer: 29.24 inHg, 990.2 hPa
Clouds: Mostly cloudy
Visibility: 10 miles, 16 km
Cloud details: Mostly cloudy 3800 ft
2024/04/13 01:53 KMSS 130153Z AUTO 20013G23KT 10SM BKN038 10/05 A2924 RMK AO2 PK WND 20026/0137 SLP902 T01000050
KBUF - Buffalo, New York, USA
Distance from station: W 204mi, 328km
Updated: Fri, 12-Apr-2024 10:11pm EDT
Light rain, Overcast
Light rain, Overcast
 Wind from WSW
Wind: WSW 21 mph, 33 km/h, Gust: 32 mph, 52 km/h
Temperature: 43°F, 6°C
Wind Chill: 34°F, 1°C
Dew Point: 37°F, 3°C
Humidity: 81%
Barometer: 29.35 inHg, 993.9 hPa
Summary: Light rain
Clouds: Overcast
Visibility: 10 miles, 16 km
Cloud details: Mostly cloudy 1300 ft
Overcast 1900 ft
2024/04/13 02:11 KBUF 130211Z 25018G28KT 10SM -RA BKN013 OVC019 06/03 A2935 RMK AO2 PK WND 25030/0158 P0001 T00560033